Centerville, Utah
Current Conditions -  °F | °C
As of 11:53 PM on Saturday 25 Oct 2014 (Local Time) from KSLC Reporting Station
Scattered Clouds Scattered Clouds  
Wind Chill: 68°   Ceiling: Unl
Heat Index: 68°   Visibility: 10mi
Dew Point: 39°   Wind: 16mph
Humidity: 35%   Direction: 160°SSE
Pressure: 29.91"   Gusts: 28mph
Location:  40.92°N, 111.87°W
Report Text: KSLC 260553Z 16014G24KT 10SM FEW120 SCT180 20/04 A2991 RMK AO2 PK WND 17031/0456 SLP081 60000 T02000039 10239 20200 53013
Loading
Personal Weather Stations






























Interactive Weather Map New forecast layout! Learn more

10-Day Weather Forecast

Advertisements
Track Severe Weather on mobile